Time;durP1;ratioP1;P1;durP2;ratioP2;P2;SDS_P1;SDS_P2;PMS_P1;PMS_P2;Temp;Humidity;BMP_temperature;BMP_pressure;BME280_temperature;BME280_humidity;BME280_pressure;Samples;Min_cycle;Max_cycle;Signal;HPM_P1;HPM_P2
2023/05/16 00:00:37;;;;;;;10.97;2.50;;;9.70;99.90;;;;;;5045204;28;20296;-73
2023/05/16 00:03:05;;;;;;;11.17;2.30;;;9.70;99.90;;;;;;5048556;28;20205;-74
2023/05/16 00:05:32;;;;;;;6.10;2.10;;;9.70;99.90;;;;;;5048131;28;20217;-75
2023/05/16 00:07:58;;;;;;;15.40;3.07;;;9.70;99.90;;;;;;5049467;28;20232;-74
2023/05/16 00:10:25;;;;;;;11.47;2.63;;;9.60;99.90;;;;;;5049461;28;20413;-75
2023/05/16 00:12:52;;;;;;;7.97;2.33;;;9.60;99.90;;;;;;5049260;28;20201;-75
2023/05/16 00:15:19;;;;;;;10.70;2.57;;;9.60;99.90;;;;;;5029136;28;20776;-73
2023/05/16 00:17:46;;;;;;;9.47;2.10;;;9.60;99.90;;;;;;5049335;28;20251;-74
2023/05/16 00:20:16;;;;;;;7.00;2.23;;;9.50;99.90;;;;;;5048811;28;20212;-74
2023/05/16 00:22:43;;;;;;;9.90;2.60;;;9.60;99.90;;;;;;5049491;28;20645;-74
2023/05/16 00:25:10;;;;;;;8.67;2.50;;;9.50;99.90;;;;;;5048478;28;20193;-73
2023/05/16 00:27:36;;;;;;;10.00;2.37;;;9.50;99.90;;;;;;5029517;28;20225;-74
2023/05/16 00:30:03;;;;;;;4.67;2.27;;;9.40;99.90;;;;;;5048416;28;20265;-74
2023/05/16 00:32:30;;;;;;;9.73;2.17;;;9.40;99.90;;;;;;5047113;28;20236;-74
2023/05/16 00:34:57;;;;;;;8.27;2.13;;;9.40;99.90;;;;;;5044957;28;20201;-74
2023/05/16 00:37:24;;;;;;;15.03;2.80;;;9.40;99.90;;;;;;5031927;28;20254;-74
2023/05/16 00:39:51;;;;;;;7.87;2.23;;;9.50;99.90;;;;;;5053150;28;20239;-75
2023/05/16 00:42:21;;;;;;;8.77;2.23;;;9.30;99.90;;;;;;5052659;28;20204;-74
2023/05/16 00:44:47;;;;;;;14.40;2.23;;;9.30;99.90;;;;;;5052650;28;20327;-73
2023/05/16 00:47:14;;;;;;;4.33;2.07;;;9.20;99.90;;;;;;5052988;28;20211;-75
2023/05/16 00:49:41;;;;;;;11.33;2.37;;;9.20;99.90;;;;;;5029676;28;20228;-73
2023/05/16 00:52:08;;;;;;;5.93;1.83;;;9.20;99.90;;;;;;5052667;28;20299;-74
2023/05/16 00:54:35;;;;;;;4.87;1.80;;;9.20;99.90;;;;;;5035389;28;20217;-74
2023/05/16 00:57:03;;;;;;;6.90;2.10;;;9.10;99.90;;;;;;5052688;28;20620;-74
2023/05/16 00:59:30;;;;;;;10.93;2.13;;;9.10;99.90;;;;;;5053304;28;20225;-74
2023/05/16 01:01:57;;;;;;;13.73;2.40;;;9.10;99.90;;;;;;5052383;28;20219;-73
2023/05/16 01:04:25;;;;;;;9.37;2.00;;;9.10;99.90;;;;;;5052674;28;20274;-73
2023/05/16 01:06:52;;;;;;;12.40;2.10;;;9.00;99.90;;;;;;5052097;28;20244;-73
2023/05/16 01:09:19;;;;;;;14.70;1.90;;;9.00;99.90;;;;;;5051958;28;20742;-74
2023/05/16 01:11:51;;;;;;;10.17;2.20;;;9.00;99.90;;;;;;5051998;28;20205;-74
2023/05/16 01:14:39;;;;;;;6.23;1.80;;;9.00;99.90;;;;;;5026895;28;20288;-74
2023/05/16 01:17:33;;;;;;;12.23;2.57;;;8.90;99.90;;;;;;5032256;28;20219;-74
2023/05/16 01:20:14;;;;;;;11.10;2.10;;;8.80;99.90;;;;;;5052227;28;20295;-74
2023/05/16 01:22:52;;;;;;;9.27;2.20;;;8.80;99.90;;;;;;5050021;28;20204;-74
2023/05/16 01:25:57;;;;;;;15.10;2.90;;;8.80;99.90;;;;;;5051991;28;20403;-73
2023/05/16 01:28:25;;;;;;;6.70;1.90;;;8.80;99.90;;;;;;5027766;28;20295;-74
2023/05/16 01:30:52;;;;;;;8.93;2.20;;;8.70;99.90;;;;;;5048438;28;20670;-73
2023/05/16 01:33:19;;;;;;;10.13;2.60;;;8.70;99.90;;;;;;5050367;28;20576;-73
2023/05/16 01:36:01;;;;;;;5.63;1.83;;;8.70;99.90;;;;;;5050881;28;20225;-73
2023/05/16 01:38:43;;;;;;;11.73;2.23;;;8.70;99.90;;;;;;5048551;28;20196;-73
2023/05/16 01:41:32;;;;;;;8.83;1.80;;;8.70;99.90;;;;;;5048032;28;20204;-74
2023/05/16 01:44:03;;;;;;;6.43;2.00;;;8.70;99.90;;;;;;5048531;28;20616;-74
2023/05/16 01:46:36;;;;;;;5.87;2.20;;;8.70;99.90;;;;;;5050552;28;20294;-74
2023/05/16 01:49:06;;;;;;;5.73;1.67;;;8.60;99.90;;;;;;5049898;28;20597;-74
2023/05/16 01:51:35;;;;;;;12.17;2.30;;;8.60;99.90;;;;;;5049878;28;20234;-73
2023/05/16 01:54:10;;;;;;;5.17;2.10;;;8.50;99.90;;;;;;5037586;28;20203;-74
2023/05/16 01:56:37;;;;;;;11.13;2.27;;;8.60;99.90;;;;;;5051068;28;20211;-73
2023/05/16 01:59:05;;;;;;;7.87;1.77;;;8.50;99.90;;;;;;5051804;28;20213;-75
2023/05/16 02:01:32;;;;;;;15.83;2.37;;;8.60;99.90;;;;;;5051433;28;20346;-74
2023/05/16 02:03:59;;;;;;;10.77;2.13;;;8.60;99.90;;;;;;5051365;28;20294;-73
2023/05/16 02:06:27;;;;;;;8.40;1.90;;;8.60;99.90;;;;;;5044165;28;20203;-74
2023/05/16 02:08:53;;;;;;;11.50;3.40;;;8.50;99.90;;;;;;5051317;28;20276;-74
2023/05/16 02:11:21;;;;;;;7.70;2.10;;;8.50;99.90;;;;;;5050459;28;20226;-74
2023/05/16 02:13:48;;;;;;;6.83;2.37;;;8.50;99.90;;;;;;5051133;28;20238;-74
2023/05/16 02:16:15;;;;;;;10.50;2.43;;;8.50;99.90;;;;;;5045834;28;20225;-74
2023/05/16 02:18:43;;;;;;;9.53;2.27;;;8.50;99.90;;;;;;5051523;28;20303;-73
2023/05/16 02:21:10;;;;;;;2.93;1.67;;;8.40;99.90;;;;;;5050763;28;20210;-74
2023/05/16 02:23:37;;;;;;;5.63;1.80;;;8.40;99.90;;;;;;5050704;28;20697;-74
2023/05/16 02:26:04;;;;;;;10.07;1.97;;;8.40;99.90;;;;;;5050471;28;20239;-74
2023/05/16 02:28:31;;;;;;;5.10;1.87;;;8.30;99.90;;;;;;5046890;28;20480;-74
2023/05/16 02:31:00;;;;;;;14.70;2.17;;;8.30;99.90;;;;;;5050369;28;20240;-74
2023/05/16 02:33:28;;;;;;;7.33;2.10;;;8.20;99.90;;;;;;5050599;28;20203;-74
2023/05/16 02:35:55;;;;;;;11.13;1.97;;;8.20;99.90;;;;;;5049285;28;20300;-73
2023/05/16 02:38:22;;;;;;;8.93;2.07;;;8.20;99.90;;;;;;5044554;28;20283;-73
2023/05/16 02:40:49;;;;;;;3.93;1.40;;;8.10;99.90;;;;;;5050927;28;20224;-74
2023/05/16 02:43:16;;;;;;;7.87;2.40;;;8.10;99.90;;;;;;5050336;28;20208;-74
2023/05/16 02:45:43;;;;;;;11.20;1.90;;;8.00;99.90;;;;;;5048880;28;20599;-73
2023/05/16 02:48:12;;;;;;;10.17;2.00;;;8.00;99.90;;;;;;5050374;28;20604;-73
2023/05/16 02:50:39;;;;;;;9.77;2.57;;;8.00;99.90;;;;;;5030927;28;20229;-74
2023/05/16 02:53:06;;;;;;;6.17;2.13;;;7.90;99.90;;;;;;5050463;28;20648;-75
2023/05/16 02:55:33;;;;;;;12.03;3.00;;;7.90;99.90;;;;;;5050319;28;20252;-74
2023/05/16 02:58:00;;;;;;;8.97;1.80;;;7.90;99.90;;;;;;5050557;28;20590;-74
2023/05/16 03:00:26;;;;;;;11.57;2.63;;;7.90;99.90;;;;;;5046553;28;20590;-74
2023/05/16 03:02:53;;;;;;;13.43;2.17;;;7.90;99.90;;;;;;5050463;28;20202;-74
2023/05/16 03:05:20;;;;;;;4.60;2.60;;;7.90;99.90;;;;;;5047806;28;20235;-73
2023/05/16 03:07:47;;;;;;;7.50;1.70;;;7.90;99.90;;;;;;5043332;28;20200;-73
2023/05/16 03:10:13;;;;;;;6.17;2.07;;;7.90;99.90;;;;;;5050117;28;20312;-74
2023/05/16 03:12:40;;;;;;;7.80;2.00;;;7.80;99.90;;;;;;5046106;28;20264;-72
2023/05/16 03:15:08;;;;;;;11.20;2.30;;;8.00;99.90;;;;;;5048219;28;20743;-73
2023/05/16 03:17:35;;;;;;;6.70;2.03;;;7.80;99.90;;;;;;5049615;28;20275;-73
2023/05/16 03:20:03;;;;;;;11.27;2.67;;;7.80;99.90;;;;;;5046378;28;20245;-75
2023/05/16 03:22:30;;;;;;;9.27;2.17;;;7.80;99.90;;;;;;5050020;28;20672;-75
2023/05/16 03:24:57;;;;;;;10.87;2.70;;;7.80;99.90;;;;;;5050207;28;20292;-74
2023/05/16 03:27:25;;;;;;;9.77;1.90;;;7.80;99.90;;;;;;5050103;28;20292;-74
2023/05/16 03:29:52;;;;;;;5.97;2.17;;;7.70;99.90;;;;;;5046559;28;20281;-74
2023/05/16 03:32:19;;;;;;;6.93;1.87;;;7.70;99.90;;;;;;5049414;28;20235;-75
2023/05/16 03:34:46;;;;;;;9.13;2.10;;;7.70;99.90;;;;;;5047318;28;20213;-75
2023/05/16 03:37:14;;;;;;;11.07;2.10;;;7.70;99.90;;;;;;5043195;28;20251;-75
2023/05/16 03:39:41;;;;;;;12.17;2.57;;;7.70;99.90;;;;;;5049605;28;20263;-75
2023/05/16 03:42:08;;;;;;;14.40;2.40;;;7.60;99.90;;;;;;5046776;28;20206;-74
2023/05/16 03:44:34;;;;;;;11.77;2.17;;;7.70;99.90;;;;;;5048663;28;20245;-75
2023/05/16 03:47:01;;;;;;;6.23;1.87;;;7.60;99.90;;;;;;5048862;28;20269;-75
2023/05/16 03:49:28;;;;;;;7.93;2.43;;;7.60;99.90;;;;;;5049611;28;20671;-74
2023/05/16 03:51:54;;;;;;;7.40;2.30;;;7.70;99.90;;;;;;5049321;28;20282;-74
2023/05/16 03:54:21;;;;;;;15.80;2.60;;;7.60;99.90;;;;;;5049140;28;20554;-76
2023/05/16 03:56:48;;;;;;;6.47;2.27;;;7.60;99.90;;;;;;5029806;28;20201;-75
2023/05/16 03:59:15;;;;;;;8.03;2.27;;;7.70;99.90;;;;;;5039065;28;20237;-75
2023/05/16 04:01:42;;;;;;;8.77;2.23;;;7.60;99.90;;;;;;5049768;28;20283;-74
2023/05/16 04:04:09;;;;;;;9.93;2.63;;;7.60;99.90;;;;;;5049637;28;20678;-75
2023/05/16 04:06:36;;;;;;;10.00;2.33;;;7.70;99.90;;;;;;5048976;28;20237;-75
2023/05/16 04:09:02;;;;;;;8.23;1.90;;;7.70;99.90;;;;;;5029037;28;20233;-74
2023/05/16 04:11:29;;;;;;;12.27;2.10;;;7.80;99.90;;;;;;5030097;28;20288;-74
2023/05/16 04:13:56;;;;;;;9.03;2.40;;;7.90;99.90;;;;;;5047893;28;21027;-75
2023/05/16 04:16:23;;;;;;;11.17;1.90;;;8.00;99.90;;;;;;5049163;28;20250;-73
2023/05/16 04:18:50;;;;;;;6.30;2.10;;;8.00;99.90;;;;;;5047385;28;20289;-75
2023/05/16 04:21:18;;;;;;;7.80;2.40;;;8.00;99.90;;;;;;5049093;28;20553;-76
2023/05/16 04:23:45;;;;;;;10.10;2.33;;;8.10;99.90;;;;;;5048535;28;20675;-73
2023/05/16 04:26:13;;;;;;;6.87;1.90;;;8.10;99.90;;;;;;5031424;28;20350;-73
2023/05/16 04:28:40;;;;;;;5.67;2.33;;;8.20;99.90;;;;;;5046661;28;20285;-74
2023/05/16 04:31:07;;;;;;;10.47;2.13;;;8.30;99.90;;;;;;5048391;28;20692;-75
2023/05/16 04:33:34;;;;;;;17.87;3.13;;;8.50;99.90;;;;;;5046167;28;20243;-74
2023/05/16 04:36:00;;;;;;;9.20;2.57;;;8.60;99.90;;;;;;5047555;28;20631;-73
2023/05/16 04:38:27;;;;;;;5.47;1.97;;;8.70;99.90;;;;;;5034200;28;20221;-75
2023/05/16 04:40:54;;;;;;;5.07;2.23;;;8.80;99.90;;;;;;5049496;28;20287;-76
2023/05/16 04:43:21;;;;;;;7.80;1.97;;;8.90;99.90;;;;;;5048552;28;20301;-75
2023/05/16 04:45:47;;;;;;;12.33;2.37;;;8.90;99.90;;;;;;5048651;28;20231;-73
2023/05/16 04:48:14;;;;;;;8.87;2.00;;;9.00;99.90;;;;;;5043994;28;20204;-74
2023/05/16 04:50:41;;;;;;;8.03;2.00;;;9.00;99.90;;;;;;5049005;28;20734;-73
2023/05/16 04:53:11;;;;;;;9.23;2.13;;;9.00;99.90;;;;;;5047730;28;20286;-76
2023/05/16 04:55:37;;;;;;;8.20;2.13;;;9.10;99.90;;;;;;5047884;28;20205;-73
2023/05/16 04:58:04;;;;;;;9.63;1.80;;;9.10;99.90;;;;;;5049200;28;20306;-74
2023/05/16 05:00:31;;;;;;;10.30;2.00;;;9.10;99.90;;;;;;5048271;28;20675;-75
2023/05/16 05:02:57;;;;;;;6.37;2.37;;;9.10;99.90;;;;;;5047856;28;20295;-75
2023/05/16 05:05:24;;;;;;;8.47;2.03;;;9.10;99.90;;;;;;5044667;28;20200;-75
2023/05/16 05:07:52;;;;;;;9.67;2.60;;;9.20;99.90;;;;;;5049026;28;20207;-74
2023/05/16 05:10:19;;;;;;;6.67;2.00;;;9.20;99.90;;;;;;5032732;28;20660;-74
2023/05/16 05:12:46;;;;;;;6.60;1.80;;;9.30;99.90;;;;;;5047110;28;20224;-75
2023/05/16 05:15:13;;;;;;;4.37;1.70;;;9.40;99.90;;;;;;5032115;28;20244;-75
2023/05/16 05:17:39;;;;;;;8.47;2.20;;;9.50;99.90;;;;;;5031067;28;20300;-74
2023/05/16 05:20:07;;;;;;;10.17;1.90;;;9.70;99.90;;;;;;5047877;28;20255;-74
2023/05/16 05:22:34;;;;;;;10.70;1.97;;;9.90;99.90;;;;;;5048651;28;20206;-74
2023/05/16 05:25:00;;;;;;;7.97;2.03;;;10.10;99.90;;;;;;5051469;28;20244;-75
2023/05/16 05:27:27;;;;;;;9.97;1.97;;;10.20;99.90;;;;;;5046178;28;20689;-75
2023/05/16 05:29:55;;;;;;;12.00;2.03;;;10.40;99.90;;;;;;5047996;28;20238;-76
2023/05/16 05:32:21;;;;;;;5.97;1.90;;;10.40;99.90;;;;;;5051435;28;20305;-74
2023/05/16 05:34:48;;;;;;;7.60;2.20;;;10.50;99.90;;;;;;5043356;28;20207;-73
2023/05/16 05:37:15;;;;;;;4.73;1.57;;;10.60;99.90;;;;;;5044142;28;20286;-74
2023/05/16 05:39:41;;;;;;;9.27;1.60;;;10.70;99.90;;;;;;5051088;28;20226;-74
2023/05/16 05:42:08;;;;;;;10.67;1.97;;;10.90;99.90;;;;;;5050431;28;20222;-73
2023/05/16 05:44:36;;;;;;;8.03;1.40;;;11.60;99.90;;;;;;5051478;28;20211;-74
2023/05/16 05:47:05;;;;;;;7.70;1.30;;;12.50;99.90;;;;;;5051379;28;20419;-75
2023/05/16 05:49:32;;;;;;;5.67;1.27;;;13.60;99.90;;;;;;5047955;28;20213;-74
2023/05/16 05:51:59;;;;;;;7.03;1.65;;;14.50;99.90;;;;;;5051347;28;20636;-74
2023/05/16 05:54:26;;;;;;;3.78;1.10;;;15.30;99.90;;;;;;5050703;28;20657;-76
2023/05/16 05:56:53;;;;;;;9.57;1.15;;;16.20;99.90;;;;;;5038533;28;20280;-76
2023/05/16 05:59:19;;;;;;;5.35;1.80;;;17.00;99.90;;;;;;5050710;28;20244;-75
2023/05/16 06:01:51;;;;;;;5.60;1.27;;;17.60;99.90;;;;;;5034010;28;20303;-75
2023/05/16 06:04:19;;;;;;;4.68;0.85;;;17.90;99.90;;;;;;5047651;28;20669;-76
2023/05/16 06:06:46;;;;;;;3.85;1.23;;;18.30;99.90;;;;;;5047668;28;20280;-76
2023/05/16 06:09:13;;;;;;;4.85;1.23;;;18.50;99.90;;;;;;5028944;28;20244;-75
2023/05/16 06:11:42;;;;;;;6.57;1.17;;;18.40;99.90;;;;;;5058551;22;20240;-83
2023/05/16 06:14:09;;;;;;;3.10;1.00;;;17.90;99.90;;;;;;5052828;28;20251;-87
2023/05/16 06:16:38;;;;;;;8.50;1.50;;;17.50;99.90;;;;;;5065156;28;20209;-86
2023/05/16 06:19:07;;;;;;;8.07;1.45;;;17.00;99.90;;;;;;5070364;28;20220;-85
2023/05/16 06:21:34;;;;;;;3.58;1.08;;;16.60;99.90;;;;;;5074028;28;20205;-85
2023/05/16 06:24:02;;;;;;;2.90;0.93;;;16.70;99.90;;;;;;5066296;28;20213;-84
2023/05/16 06:26:37;;;;;;;2.13;0.88;;;17.10;99.90;;;;;;5068924;28;20403;-85
2023/05/16 06:29:04;;;;;;;4.65;1.20;;;17.80;99.90;;;;;;5075580;28;20219;-86
2023/05/16 06:31:31;;;;;;;4.80;0.98;;;18.00;99.90;;;;;;5071259;28;20242;-84
2023/05/16 06:34:00;;;;;;;6.60;1.23;;;17.60;99.90;;;;;;5073216;28;20200;-83
2023/05/16 06:36:30;;;;;;;7.15;1.60;;;17.10;99.90;;;;;;5070893;28;20250;-86
2023/05/16 06:38:58;;;;;;;5.88;1.20;;;16.70;99.90;;;;;;5066687;28;20189;-85
2023/05/16 06:41:28;;;;;;;6.05;1.40;;;16.50;99.90;;;;;;5068215;28;20293;-85
2023/05/16 06:44:12;;;;;;;4.40;1.40;;;16.30;99.90;;;;;;5068668;28;20211;-86
2023/05/16 06:46:44;;;;;;;8.30;1.38;;;15.60;99.90;;;;;;5064456;28;20582;-86
2023/05/16 06:49:12;;;;;;;5.07;1.13;;;15.30;99.90;;;;;;5070451;28;20216;-85
2023/05/16 06:51:43;;;;;;;6.50;1.20;;;15.10;99.90;;;;;;5063448;28;20302;-86
2023/05/16 06:54:18;;;;;;;3.60;1.30;;;15.00;99.90;;;;;;5069934;28;20240;-86
2023/05/16 06:56:47;;;;;;;2.60;1.00;;;14.90;99.90;;;;;;5068467;28;20228;-88
2023/05/16 06:59:20;;;;;;;4.23;1.10;;;14.60;99.90;;;;;;5063256;28;20212;-85
2023/05/16 07:01:55;;;;;;;5.30;1.70;;;14.30;99.90;;;;;;5063422;28;20326;-84
2023/05/16 07:04:24;;;;;;;4.70;1.17;;;14.00;99.90;;;;;;5066129;28;20216;-87
2023/05/16 07:06:55;;;;;;;4.77;1.10;;;13.70;99.90;;;;;;5062023;28;20212;-85
2023/05/16 07:09:22;;;;;;;4.07;1.30;;;13.60;99.90;;;;;;5067129;28;20270;-86
2023/05/16 07:12:04;;;;;;;4.53;1.10;;;13.30;99.90;;;;;;5064449;28;20317;-86
2023/05/16 07:14:34;;;;;;;6.27;1.20;;;13.20;99.90;;;;;;5062958;28;20310;-87
2023/05/16 07:17:06;;;;;;;3.33;1.20;;;13.00;99.90;;;;;;5065672;28;20236;-84
2023/05/16 07:19:36;;;;;;;5.33;1.87;;;12.80;99.90;;;;;;5069005;28;20208;-84
2023/05/16 07:22:06;;;;;;;3.63;1.07;;;12.70;99.90;;;;;;5070011;28;20222;-85
2023/05/16 07:24:36;;;;;;;7.57;1.10;;;12.50;99.90;;;;;;5063623;28;20216;-85
2023/05/16 07:27:05;;;;;;;2.80;1.00;;;12.40;99.90;;;;;;5063984;28;20197;-88
2023/05/16 07:29:36;;;;;;;6.40;1.10;;;12.70;99.90;;;;;;5059774;28;20434;-87
2023/05/16 07:32:03;;;;;;;3.27;1.10;;;12.10;99.90;;;;;;5062152;28;20690;-83
2023/05/16 07:34:33;;;;;;;2.77;1.03;;;12.10;99.90;;;;;;5059858;28;20201;-85
2023/05/16 07:37:11;;;;;;;9.60;1.67;;;12.10;99.90;;;;;;5065545;28;20598;-85
2023/05/16 07:39:39;;;;;;;4.33;1.63;;;12.10;99.90;;;;;;5062080;28;20681;-87
2023/05/16 07:42:07;;;;;;;5.80;1.10;;;12.20;99.90;;;;;;5063907;28;20227;-86
2023/05/16 07:44:38;;;;;;;3.93;1.10;;;12.50;99.90;;;;;;5066467;28;20216;-84
2023/05/16 07:47:05;;;;;;;4.63;1.07;;;13.10;99.90;;;;;;5058772;28;20305;-84
2023/05/16 07:49:32;;;;;;;7.03;1.00;;;14.00;99.90;;;;;;5064263;28;20232;-86
2023/05/16 07:52:09;;;;;;;1.52;0.85;;;14.80;99.90;;;;;;5058670;28;20303;-88
2023/05/16 07:54:37;;;;;;;0.88;0.60;;;15.80;99.90;;;;;;5068644;28;20208;-85
2023/05/16 07:57:06;;;;;;;1.70;0.65;;;16.70;99.90;;;;;;5062627;28;20201;-84
2023/05/16 07:59:33;;;;;;;2.63;0.70;;;17.30;99.90;;;;;;5069834;28;20266;-84
2023/05/16 08:02:01;;;;;;;1.83;0.68;;;17.40;99.90;;;;;;5072859;28;20201;-86
2023/05/16 08:04:28;;;;;;;4.13;0.70;;;17.30;99.90;;;;;;5068038;28;20688;-87
2023/05/16 08:06:56;;;;;;;5.35;0.80;;;17.10;99.90;;;;;;5053354;28;20201;-87
2023/05/16 08:09:23;;;;;;;2.65;0.70;;;17.20;99.90;;;;;;5050468;28;20195;-86
2023/05/16 08:11:50;;;;;;;1.55;0.70;;;17.50;99.90;;;;;;5067007;28;20294;-87
2023/05/16 08:14:22;;;;;;;1.65;0.52;;;17.70;99.90;;;;;;5061079;28;20225;-86
2023/05/16 08:16:50;;;;;;;1.98;0.70;;;17.80;99.90;;;;;;5061758;28;20208;-85
2023/05/16 08:19:20;;;;;;;1.27;0.60;;;18.00;99.90;;;;;;5065324;28;20228;-86
2023/05/16 08:21:47;;;;;;;0.95;0.60;;;17.90;99.90;;;;;;5062999;28;20222;-85
2023/05/16 08:24:14;;;;;;;1.33;0.68;;;18.00;99.90;;;;;;5066305;28;20224;-85
2023/05/16 08:26:44;;;;;;;2.50;0.70;;;18.00;99.90;;;;;;5068114;28;20205;-87
2023/05/16 08:29:11;;;;;;;1.58;0.52;;;18.20;99.90;;;;;;5063865;28;20232;-84
2023/05/16 08:31:38;;;;;;;1.70;0.77;;;18.60;99.90;;;;;;5059222;28;20225;-86
2023/05/16 08:34:09;;;;;;;2.25;0.70;;;18.80;99.90;;;;;;5067973;28;20205;-88
2023/05/16 08:36:36;;;;;;;1.77;0.63;;;18.90;99.90;;;;;;5062527;28;20208;-85
2023/05/16 08:39:04;;;;;;;3.05;1.00;;;19.00;99.90;;;;;;5063578;28;20291;-85
2023/05/16 08:41:32;;;;;;;2.15;1.02;;;18.90;99.90;;;;;;5063017;28;20236;-87
2023/05/16 08:44:00;;;;;;;5.53;0.88;;;18.50;99.90;;;;;;5062903;28;20209;-86
2023/05/16 08:46:34;;;;;;;5.15;0.80;;;17.80;99.90;;;;;;5069333;28;20544;-86
2023/05/16 08:49:06;;;;;;;4.05;0.90;;;16.80;99.90;;;;;;5061774;28;20672;-85
2023/05/16 08:51:38;;;;;;;4.43;0.80;;;16.00;99.90;;;;;;5070306;28;20808;-85
2023/05/16 08:54:12;;;;;;;3.95;1.25;;;15.40;99.90;;;;;;5074615;28;20201;-87
2023/05/16 08:56:42;;;;;;;3.87;0.70;;;14.90;99.90;;;;;;5069689;28;20204;-85
2023/05/16 08:59:13;;;;;;;1.63;0.73;;;14.60;99.90;;;;;;5071496;28;20228;-85
2023/05/16 09:01:41;;;;;;;3.17;0.70;;;14.70;99.90;;;;;;5075581;28;20209;-85
2023/05/16 09:04:09;;;;;;;3.60;0.88;;;15.10;99.90;;;;;;5078802;28;20589;-85
2023/05/16 09:06:37;;;;;;;2.30;0.70;;;15.60;99.90;;;;;;5078947;28;20681;-85
2023/05/16 09:09:06;;;;;;;2.00;0.50;;;16.10;99.90;;;;;;5072702;28;20192;-86
2023/05/16 09:11:34;;;;;;;2.85;0.80;;;16.60;99.90;;;;;;5067581;28;20248;-86
2023/05/16 09:14:09;;;;;;;2.70;0.70;;;17.00;99.90;;;;;;5068812;28;20232;-85
2023/05/16 09:16:36;;;;;;;3.10;0.82;;;17.40;99.90;;;;;;5062633;28;20623;-86
2023/05/16 09:19:05;;;;;;;2.65;0.60;;;17.70;99.90;;;;;;5063929;28;20274;-85
2023/05/16 09:21:38;;;;;;;3.42;0.88;;;18.00;99.90;;;;;;5073687;28;20200;-86
2023/05/16 09:24:08;;;;;;;3.33;0.90;;;18.00;99.90;;;;;;5072671;28;20236;-89
2023/05/16 09:26:38;;;;;;;3.67;0.63;;;17.80;99.90;;;;;;5074732;28;20205;-86
2023/05/16 09:29:12;;;;;;;1.80;0.73;;;17.30;99.90;;;;;;5074570;28;20205;-87
2023/05/16 09:31:39;;;;;;;5.05;0.80;;;16.60;99.90;;;;;;5060445;28;20215;-88
2023/05/16 09:34:08;;;;;;;1.50;0.80;;;16.30;99.90;;;;;;5065314;28;20273;-87
2023/05/16 09:36:38;;;;;;;3.55;0.80;;;15.90;99.90;;;;;;5066923;28;20204;-88
2023/05/16 09:39:16;;;;;;;4.00;0.80;;;15.70;99.90;;;;;;5071952;28;20202;-88
2023/05/16 09:42:13;;;;;;;5.57;0.88;;;15.80;99.90;;;;;;5060984;28;20200;-95
2023/05/16 09:45:29;;;;;;;3.63;1.20;;;16.00;99.90;;;;;;5078185;28;20254;-91
2023/05/16 09:48:13;;;;;;;1.70;0.60;;;16.40;99.90;;;;;;5061039;28;20372;-85
2023/05/16 09:50:53;;;;;;;4.72;0.90;;;16.60;99.90;;;;;;5068195;28;20242;-88
2023/05/16 09:53:37;;;;;;;2.72;0.68;;;16.80;99.90;;;;;;5066452;28;20225;-84
2023/05/16 09:56:09;;;;;;;1.40;0.63;;;17.00;99.90;;;;;;5063696;28;20709;-85
2023/05/16 09:58:58;;;;;;;3.42;0.70;;;17.00;99.90;;;;;;5066889;28;20226;-88
2023/05/16 10:01:28;;;;;;;1.80;0.60;;;17.00;99.90;;;;;;5077690;28;20324;-86
2023/05/16 10:04:02;;;;;;;1.88;0.77;;;17.10;99.90;;;;;;5067041;28;20250;-88
2023/05/16 10:06:31;;;;;;;4.32;0.73;;;17.20;99.90;;;;;;5068812;28;20215;-87
2023/05/16 10:09:11;;;;;;;1.35;0.65;;;17.00;99.90;;;;;;5067475;28;20200;-89
2023/05/16 10:11:47;;;;;;;3.13;1.05;;;17.00;99.90;;;;;;5068290;28;20224;-89
2023/05/16 10:14:32;;;;;;;4.20;0.90;;;17.00;99.90;;;;;;5070254;28;20233;-87
2023/05/16 10:17:24;;;;;;;2.00;0.75;;;16.90;99.90;;;;;;5080983;28;20205;-84
2023/05/16 10:19:59;;;;;;;3.97;0.90;;;17.00;99.90;;;;;;5089634;28;20188;-86
2023/05/16 10:22:54;;;;;;;3.05;1.05;;;17.10;99.90;;;;;;5086303;28;20208;-86
2023/05/16 10:25:46;;;;;;;3.95;1.00;;;17.10;99.90;;;;;;5082569;28;20201;-89
2023/05/16 10:28:21;;;;;;;2.92;1.15;;;17.10;99.90;;;;;;5078153;28;20197;-88
2023/05/16 10:30:54;;;;;;;2.92;0.93;;;17.00;99.90;;;;;;5061401;28;20211;-90
2023/05/16 10:33:21;;;;;;;3.20;0.73;;;16.80;99.90;;;;;;5074121;28;20231;-88
2023/05/16 10:35:51;;;;;;;3.35;0.77;;;16.80;99.90;;;;;;5072851;28;20287;-88
2023/05/16 10:38:27;;;;;;;4.15;0.85;;;16.80;99.90;;;;;;5071029;28;20200;-87
2023/05/16 10:40:56;;;;;;;2.40;0.80;;;16.90;99.90;;;;;;5067358;28;20208;-88
2023/05/16 10:43:29;;;;;;;4.32;1.00;;;16.90;99.90;;;;;;5069460;28;20189;-88
2023/05/16 10:46:06;;;;;;;4.90;0.90;;;17.10;99.90;;;;;;5068490;28;20221;-88
2023/05/16 10:48:35;;;;;;;4.25;1.05;;;17.00;99.90;;;;;;5069677;28;20200;-86
2023/05/16 10:51:35;;;;;;;3.35;1.13;;;16.80;99.90;;;;;;5065692;28;20642;-89
2023/05/16 10:54:52;;;;;;;4.75;0.85;;;16.80;99.90;;;;;;5063140;28;20225;-89
2023/05/16 10:57:22;;;;;;;1.33;0.70;;;16.70;99.90;;;;;;5066951;28;20216;-88
2023/05/16 11:00:00;;;;;;;1.90;0.73;;;16.60;99.90;;;;;;5069847;28;20212;-87
2023/05/16 11:02:34;;;;;;;3.28;1.10;;;16.50;99.90;;;;;;5068811;28;20235;-88
2023/05/16 11:05:17;;;;;;;3.22;0.70;;;16.60;99.90;;;;;;5071182;28;20208;-87
2023/05/16 11:08:04;;;;;;;3.90;0.90;;;16.50;99.90;;;;;;5064500;28;20204;-88
2023/05/16 11:10:36;;;;;;;4.72;1.05;;;16.70;99.90;;;;;;5063439;28;20212;-89
2023/05/16 11:13:09;;;;;;;3.00;0.90;;;16.90;99.90;;;;;;5068282;28;20272;-91
2023/05/16 11:15:36;;;;;;;2.08;0.95;;;17.10;99.90;;;;;;5069653;28;20242;-87
2023/05/16 11:18:13;;;;;;;2.75;1.20;;;17.30;99.90;;;;;;5056933;28;20219;-87
2023/05/16 11:20:44;;;;;;;1.45;0.70;;;17.60;99.90;;;;;;5067447;28;20275;-86
2023/05/16 11:23:18;;;;;;;4.30;1.00;;;17.50;99.90;;;;;;5067694;28;20264;-88
2023/05/16 11:25:50;;;;;;;4.32;1.10;;;17.30;99.90;;;;;;5066530;28;20321;-88
2023/05/16 11:28:20;;;;;;;5.38;1.02;;;17.00;99.90;;;;;;5066379;28;20668;-87
2023/05/16 11:30:54;;;;;;;2.35;1.00;;;17.00;99.90;;;;;;5062681;28;20217;-89
2023/05/16 11:33:22;;;;;;;3.55;1.40;;;17.10;99.90;;;;;;5067501;28;20233;-87
2023/05/16 11:36:01;;;;;;;2.83;1.23;;;16.90;99.90;;;;;;5066065;28;20228;-87
2023/05/16 11:38:42;;;;;;;3.10;1.10;;;16.70;99.90;;;;;;5069232;28;20282;-87
2023/05/16 11:41:16;;;;;;;3.30;1.00;;;16.50;99.90;;;;;;5072319;28;20704;-90
2023/05/16 11:43:56;;;;;;;1.95;1.00;;;16.60;99.90;;;;;;5062868;28;20201;-91
2023/05/16 11:46:29;;;;;;;7.50;1.30;;;16.80;99.90;;;;;;5075589;28;20216;-90
2023/05/16 11:48:58;;;;;;;2.90;1.10;;;16.90;99.90;;;;;;5061364;28;20216;-85
2023/05/16 11:51:25;;;;;;;2.58;1.10;;;16.80;99.90;;;;;;5068111;28;20235;-88
2023/05/16 11:54:12;;;;;;;2.95;1.00;;;16.90;99.90;;;;;;5082078;28;20232;-90
2023/05/16 11:56:59;;;;;;;2.05;1.00;;;16.80;99.90;;;;;;5081052;28;20204;-89
2023/05/16 11:59:44;;;;;;;4.85;1.52;;;16.80;99.90;;;;;;5072016;28;20231;-90
2023/05/16 12:02:21;;;;;;;4.70;0.93;;;16.70;99.90;;;;;;5073595;28;20207;-91
2023/05/16 12:05:08;;;;;;;4.68;1.48;;;16.50;99.90;;;;;;5091667;28;20294;-91
2023/05/16 12:07:48;;;;;;;2.08;1.00;;;16.50;99.90;;;;;;5088524;28;20272;-91
2023/05/16 12:10:34;;;;;;;2.70;1.10;;;16.60;99.90;;;;;;5066701;28;20203;-92
2023/05/16 12:13:08;;;;;;;3.08;1.33;;;16.70;99.90;;;;;;5072460;28;20598;-87
2023/05/16 12:15:37;;;;;;;5.20;1.25;;;16.70;99.90;;;;;;5061920;28;20227;-88
2023/05/16 12:18:23;;;;;;;2.95;0.98;;;16.90;99.90;;;;;;5068721;28;20228;-91
2023/05/16 12:20:57;;;;;;;5.57;1.27;;;17.20;99.90;;;;;;5065949;28;20201;-91
2023/05/16 12:23:30;;;;;;;2.58;1.00;;;17.20;99.90;;;;;;5067343;28;20724;-89
2023/05/16 12:26:00;;;;;;;2.95;1.10;;;17.10;99.90;;;;;;5076683;28;20207;-88
2023/05/16 12:28:37;;;;;;;3.45;0.82;;;17.00;99.90;;;;;;5062233;28;20205;-86
2023/05/16 12:31:19;;;;;;;3.97;0.90;;;16.70;99.90;;;;;;5064014;28;20220;-87
2023/05/16 12:33:58;;;;;;;3.08;1.13;;;16.80;99.90;;;;;;5071804;28;20224;-87
2023/05/16 12:36:25;;;;;;;3.42;1.05;;;17.00;99.90;;;;;;5065422;28;20289;-84
2023/05/16 12:39:05;;;;;;;4.97;1.17;;;17.40;99.90;;;;;;5069147;28;20205;-85
2023/05/16 12:41:41;;;;;;;3.15;1.10;;;17.60;99.90;;;;;;5076036;28;20212;-86
2023/05/16 12:44:16;;;;;;;5.47;1.95;;;17.90;99.90;;;;;;5074785;28;20295;-83
2023/05/16 12:46:50;;;;;;;2.40;1.13;;;18.10;99.90;;;;;;5074765;28;20204;-88
2023/05/16 12:49:23;;;;;;;3.03;1.08;;;18.20;99.90;;;;;;5067564;28;20201;-86
2023/05/16 12:51:57;;;;;;;4.18;1.10;;;18.10;99.90;;;;;;5070310;28;20232;-87
2023/05/16 12:54:25;;;;;;;3.03;0.88;;;18.00;99.90;;;;;;5066710;28;20235;-89
2023/05/16 12:56:53;;;;;;;2.95;1.08;;;17.90;99.90;;;;;;5068539;28;20972;-87
2023/05/16 12:59:25;;;;;;;4.28;0.93;;;17.80;99.90;;;;;;5060829;28;20271;-88
2023/05/16 13:01:52;;;;;;;4.63;1.05;;;17.50;99.90;;;;;;5066637;28;20289;-87
2023/05/16 13:04:22;;;;;;;4.05;1.05;;;17.20;99.90;;;;;;5071998;28;20263;-86
2023/05/16 13:06:50;;;;;;;3.45;0.88;;;16.80;99.90;;;;;;5074559;28;20232;-89
2023/05/16 13:09:21;;;;;;;5.38;1.40;;;16.50;99.90;;;;;;5073332;28;20244;-89